sensor_id;sensor_type;location;lat;lon;timestamp;temperature;humidity
16200;DHT22;8207;52.494;4.654;2023-02-15T00:01:21;2.00;99.90
16200;DHT22;8207;52.494;4.654;2023-02-15T00:03:48;2.00;99.90
16200;DHT22;8207;52.494;4.654;2023-02-15T00:06:16;1.90;99.90
16200;DHT22;8207;52.494;4.654;2023-02-15T00:08:44;1.90;99.90
16200;DHT22;8207;52.494;4.654;2023-02-15T00:11:14;1.80;99.90
16200;DHT22;8207;52.494;4.654;2023-02-15T00:13:41;1.80;99.90
16200;DHT22;8207;52.494;4.654;2023-02-15T00:16:10;1.80;99.90
16200;DHT22;8207;52.494;4.654;2023-02-15T00:18:38;1.80;99.90
16200;DHT22;8207;52.494;4.654;2023-02-15T00:21:07;1.70;99.90
16200;DHT22;8207;52.494;4.654;2023-02-15T00:23:36;1.80;99.90
16200;DHT22;8207;52.494;4.654;2023-02-15T00:26:04;1.70;99.90
16200;DHT22;8207;52.494;4.654;2023-02-15T00:28:31;1.70;99.90
16200;DHT22;8207;52.494;4.654;2023-02-15T00:31:03;1.70;99.90
16200;DHT22;8207;52.494;4.654;2023-02-15T00:33:30;1.70;99.90
16200;DHT22;8207;52.494;4.654;2023-02-15T00:35:57;1.70;99.90
16200;DHT22;8207;52.494;4.654;2023-02-15T00:38:25;1.70;99.90
16200;DHT22;8207;52.494;4.654;2023-02-15T00:40:54;1.60;99.90
16200;DHT22;8207;52.494;4.654;2023-02-15T00:43:21;1.60;99.90
16200;DHT22;8207;52.494;4.654;2023-02-15T00:45:48;1.60;99.90
16200;DHT22;8207;52.494;4.654;2023-02-15T00:48:15;1.60;99.90
16200;DHT22;8207;52.494;4.654;2023-02-15T00:50:44;1.70;99.90
16200;DHT22;8207;52.494;4.654;2023-02-15T00:53:12;1.70;99.90
16200;DHT22;8207;52.494;4.654;2023-02-15T00:55:39;1.70;99.90
16200;DHT22;8207;52.494;4.654;2023-02-15T00:58:08;1.70;99.90
16200;DHT22;8207;52.494;4.654;2023-02-15T01:00:35;1.70;99.90
16200;DHT22;8207;52.494;4.654;2023-02-15T01:03:02;1.70;99.90
16200;DHT22;8207;52.494;4.654;2023-02-15T01:05:30;1.80;99.90
16200;DHT22;8207;52.494;4.654;2023-02-15T01:07:58;1.80;99.90
16200;DHT22;8207;52.494;4.654;2023-02-15T01:10:25;1.80;99.90
16200;DHT22;8207;52.494;4.654;2023-02-15T01:12:53;1.80;99.90
16200;DHT22;8207;52.494;4.654;2023-02-15T01:15:22;1.80;99.90
16200;DHT22;8207;52.494;4.654;2023-02-15T01:17:49;1.80;99.90
16200;DHT22;8207;52.494;4.654;2023-02-15T01:20:18;1.70;99.90
16200;DHT22;8207;52.494;4.654;2023-02-15T01:22:46;1.80;99.90
16200;DHT22;8207;52.494;4.654;2023-02-15T01:25:15;1.70;99.90
16200;DHT22;8207;52.494;4.654;2023-02-15T01:27:42;1.70;99.90
16200;DHT22;8207;52.494;4.654;2023-02-15T01:30:10;1.70;99.90
16200;DHT22;8207;52.494;4.654;2023-02-15T01:32:38;1.70;99.90
16200;DHT22;8207;52.494;4.654;2023-02-15T01:35:06;1.60;99.90
16200;DHT22;8207;52.494;4.654;2023-02-15T01:37:34;1.60;99.90
16200;DHT22;8207;52.494;4.654;2023-02-15T01:40:01;1.60;99.90
16200;DHT22;8207;52.494;4.654;2023-02-15T01:42:29;1.50;99.90
16200;DHT22;8207;52.494;4.654;2023-02-15T01:44:57;1.50;99.90
16200;DHT22;8207;52.494;4.654;2023-02-15T01:47:29;1.50;99.90
16200;DHT22;8207;52.494;4.654;2023-02-15T01:50:06;1.50;99.90
16200;DHT22;8207;52.494;4.654;2023-02-15T01:52:37;1.40;99.90
16200;DHT22;8207;52.494;4.654;2023-02-15T01:55:07;1.40;99.90
16200;DHT22;8207;52.494;4.654;2023-02-15T01:57:34;1.40;99.90
16200;DHT22;8207;52.494;4.654;2023-02-15T02:00:03;1.30;99.90
16200;DHT22;8207;52.494;4.654;2023-02-15T02:02:31;1.30;99.90
16200;DHT22;8207;52.494;4.654;2023-02-15T02:05:01;1.30;99.90
16200;DHT22;8207;52.494;4.654;2023-02-15T02:07:34;1.30;99.90
16200;DHT22;8207;52.494;4.654;2023-02-15T02:10:02;1.20;99.90
16200;DHT22;8207;52.494;4.654;2023-02-15T02:12:29;1.20;99.90
16200;DHT22;8207;52.494;4.654;2023-02-15T02:14:57;1.20;99.90
16200;DHT22;8207;52.494;4.654;2023-02-15T02:17:40;1.20;99.90
16200;DHT22;8207;52.494;4.654;2023-02-15T02:23:32;1.20;99.90
16200;DHT22;8207;52.494;4.654;2023-02-15T02:29:43;1.10;99.90
16200;DHT22;8207;52.494;4.654;2023-02-15T02:35:23;1.10;99.90
16200;DHT22;8207;52.494;4.654;2023-02-15T02:37:55;1.20;99.90
16200;DHT22;8207;52.494;4.654;2023-02-15T02:40:34;1.20;99.90
16200;DHT22;8207;52.494;4.654;2023-02-15T02:43:05;1.20;99.90
16200;DHT22;8207;52.494;4.654;2023-02-15T02:45:39;1.20;99.90
16200;DHT22;8207;52.494;4.654;2023-02-15T02:48:09;1.20;99.90
16200;DHT22;8207;52.494;4.654;2023-02-15T02:50:41;1.20;99.90
16200;DHT22;8207;52.494;4.654;2023-02-15T02:53:09;1.20;99.90
16200;DHT22;8207;52.494;4.654;2023-02-15T02:55:40;1.20;99.90
16200;DHT22;8207;52.494;4.654;2023-02-15T02:58:11;1.20;99.90
16200;DHT22;8207;52.494;4.654;2023-02-15T03:00:42;1.20;99.90
16200;DHT22;8207;52.494;4.654;2023-02-15T03:03:13;1.30;99.90
16200;DHT22;8207;52.494;4.654;2023-02-15T03:05:44;1.40;99.90
16200;DHT22;8207;52.494;4.654;2023-02-15T03:08:14;1.40;99.90
16200;DHT22;8207;52.494;4.654;2023-02-15T03:10:48;1.40;99.90
16200;DHT22;8207;52.494;4.654;2023-02-15T03:13:15;1.40;99.90
16200;DHT22;8207;52.494;4.654;2023-02-15T03:15:44;1.50;99.90
16200;DHT22;8207;52.494;4.654;2023-02-15T03:18:35;1.50;99.90
16200;DHT22;8207;52.494;4.654;2023-02-15T03:21:05;1.40;99.90
16200;DHT22;8207;52.494;4.654;2023-02-15T03:23:35;1.50;99.90
16200;DHT22;8207;52.494;4.654;2023-02-15T03:26:05;1.40;99.90
16200;DHT22;8207;52.494;4.654;2023-02-15T03:28:36;1.40;99.90
16200;DHT22;8207;52.494;4.654;2023-02-15T03:31:06;1.50;99.90
16200;DHT22;8207;52.494;4.654;2023-02-15T03:33:37;1.40;99.90
16200;DHT22;8207;52.494;4.654;2023-02-15T03:36:13;1.40;99.90
16200;DHT22;8207;52.494;4.654;2023-02-15T03:38:49;1.40;99.90
16200;DHT22;8207;52.494;4.654;2023-02-15T03:41:19;1.40;99.90
16200;DHT22;8207;52.494;4.654;2023-02-15T03:43:53;1.50;99.90
16200;DHT22;8207;52.494;4.654;2023-02-15T03:46:24;1.50;99.90
16200;DHT22;8207;52.494;4.654;2023-02-15T03:48:55;1.50;99.90
16200;DHT22;8207;52.494;4.654;2023-02-15T03:51:29;1.50;99.90
16200;DHT22;8207;52.494;4.654;2023-02-15T03:54:06;1.50;99.90
16200;DHT22;8207;52.494;4.654;2023-02-15T03:56:35;1.40;99.90
16200;DHT22;8207;52.494;4.654;2023-02-15T03:59:03;1.40;99.90
16200;DHT22;8207;52.494;4.654;2023-02-15T04:01:55;1.40;99.90
16200;DHT22;8207;52.494;4.654;2023-02-15T04:04:28;1.30;99.90
16200;DHT22;8207;52.494;4.654;2023-02-15T04:06:58;1.30;99.90
16200;DHT22;8207;52.494;4.654;2023-02-15T04:09:25;1.30;99.90
16200;DHT22;8207;52.494;4.654;2023-02-15T04:12:10;1.20;99.90
16200;DHT22;8207;52.494;4.654;2023-02-15T04:14:37;1.20;99.90
16200;DHT22;8207;52.494;4.654;2023-02-15T04:17:21;1.20;99.90
16200;DHT22;8207;52.494;4.654;2023-02-15T04:19:48;1.20;99.90
16200;DHT22;8207;52.494;4.654;2023-02-15T04:22:34;1.10;99.90
16200;DHT22;8207;52.494;4.654;2023-02-15T04:25:18;1.10;99.90
16200;DHT22;8207;52.494;4.654;2023-02-15T04:27:47;1.10;99.90
16200;DHT22;8207;52.494;4.654;2023-02-15T04:30:16;1.10;99.90
16200;DHT22;8207;52.494;4.654;2023-02-15T04:32:44;1.00;99.90
16200;DHT22;8207;52.494;4.654;2023-02-15T04:35:11;1.00;99.90
16200;DHT22;8207;52.494;4.654;2023-02-15T04:37:40;1.00;99.90
16200;DHT22;8207;52.494;4.654;2023-02-15T04:40:08;1.00;99.90
16200;DHT22;8207;52.494;4.654;2023-02-15T04:42:37;0.90;99.90
16200;DHT22;8207;52.494;4.654;2023-02-15T04:45:04;0.90;99.90
16200;DHT22;8207;52.494;4.654;2023-02-15T04:47:32;0.90;99.90
16200;DHT22;8207;52.494;4.654;2023-02-15T04:49:59;0.90;99.90
16200;DHT22;8207;52.494;4.654;2023-02-15T04:52:26;0.90;99.90
16200;DHT22;8207;52.494;4.654;2023-02-15T04:54:54;0.90;99.90
16200;DHT22;8207;52.494;4.654;2023-02-15T04:57:21;0.90;99.90
16200;DHT22;8207;52.494;4.654;2023-02-15T04:59:48;0.90;99.90
16200;DHT22;8207;52.494;4.654;2023-02-15T05:02:15;0.80;99.90
16200;DHT22;8207;52.494;4.654;2023-02-15T05:04:42;0.90;99.90
16200;DHT22;8207;52.494;4.654;2023-02-15T05:07:08;0.90;99.90
16200;DHT22;8207;52.494;4.654;2023-02-15T05:09:35;0.80;99.90
16200;DHT22;8207;52.494;4.654;2023-02-15T05:12:04;0.80;99.90
16200;DHT22;8207;52.494;4.654;2023-02-15T05:14:31;0.80;99.90
16200;DHT22;8207;52.494;4.654;2023-02-15T05:16:58;0.80;99.90
16200;DHT22;8207;52.494;4.654;2023-02-15T05:19:27;0.80;99.90
16200;DHT22;8207;52.494;4.654;2023-02-15T05:21:53;0.80;99.90
16200;DHT22;8207;52.494;4.654;2023-02-15T05:24:20;0.80;99.90
16200;DHT22;8207;52.494;4.654;2023-02-15T05:27:07;0.80;99.90
16200;DHT22;8207;52.494;4.654;2023-02-15T05:29:51;0.80;99.90
16200;DHT22;8207;52.494;4.654;2023-02-15T05:32:18;0.80;99.90
16200;DHT22;8207;52.494;4.654;2023-02-15T05:34:45;0.80;99.90
16200;DHT22;8207;52.494;4.654;2023-02-15T05:37:12;0.80;99.90
16200;DHT22;8207;52.494;4.654;2023-02-15T05:39:39;0.80;99.90
16200;DHT22;8207;52.494;4.654;2023-02-15T05:42:07;0.80;99.90
16200;DHT22;8207;52.494;4.654;2023-02-15T05:44:34;0.80;99.90
16200;DHT22;8207;52.494;4.654;2023-02-15T05:47:01;0.80;99.90
16200;DHT22;8207;52.494;4.654;2023-02-15T05:49:29;0.80;99.90
16200;DHT22;8207;52.494;4.654;2023-02-15T05:51:56;0.80;99.90
16200;DHT22;8207;52.494;4.654;2023-02-15T05:54:23;0.80;99.90
16200;DHT22;8207;52.494;4.654;2023-02-15T05:56:50;0.80;99.90
16200;DHT22;8207;52.494;4.654;2023-02-15T05:59:19;0.90;99.90
16200;DHT22;8207;52.494;4.654;2023-02-15T06:01:46;0.80;99.90
16200;DHT22;8207;52.494;4.654;2023-02-15T06:04:12;0.90;99.90
16200;DHT22;8207;52.494;4.654;2023-02-15T06:06:39;0.90;99.90
16200;DHT22;8207;52.494;4.654;2023-02-15T06:09:06;0.90;99.90
16200;DHT22;8207;52.494;4.654;2023-02-15T06:11:33;0.90;99.90
16200;DHT22;8207;52.494;4.654;2023-02-15T06:14:00;0.90;99.90
16200;DHT22;8207;52.494;4.654;2023-02-15T06:16:29;0.90;99.90
16200;DHT22;8207;52.494;4.654;2023-02-15T06:18:56;0.90;99.90
16200;DHT22;8207;52.494;4.654;2023-02-15T06:21:24;0.90;99.90
16200;DHT22;8207;52.494;4.654;2023-02-15T06:23:51;0.90;99.90
16200;DHT22;8207;52.494;4.654;2023-02-15T06:26:18;0.90;99.90
16200;DHT22;8207;52.494;4.654;2023-02-15T06:28:45;0.90;99.90
16200;DHT22;8207;52.494;4.654;2023-02-15T06:31:12;0.90;99.90
16200;DHT22;8207;52.494;4.654;2023-02-15T06:33:40;1.00;99.90
16200;DHT22;8207;52.494;4.654;2023-02-15T06:36:07;1.00;99.90
16200;DHT22;8207;52.494;4.654;2023-02-15T06:38:34;1.00;99.90
16200;DHT22;8207;52.494;4.654;2023-02-15T06:41:01;1.00;99.90
16200;DHT22;8207;52.494;4.654;2023-02-15T06:43:28;1.10;99.90
16200;DHT22;8207;52.494;4.654;2023-02-15T06:45:55;1.10;99.90
16200;DHT22;8207;52.494;4.654;2023-02-15T06:48:22;1.10;99.90
16200;DHT22;8207;52.494;4.654;2023-02-15T06:50:50;1.10;99.90
16200;DHT22;8207;52.494;4.654;2023-02-15T06:53:17;1.20;99.90
16200;DHT22;8207;52.494;4.654;2023-02-15T06:55:44;1.20;99.90
16200;DHT22;8207;52.494;4.654;2023-02-15T06:58:11;1.40;99.90
16200;DHT22;8207;52.494;4.654;2023-02-15T07:00:37;1.60;99.90
16200;DHT22;8207;52.494;4.654;2023-02-15T07:03:04;1.80;99.90
16200;DHT22;8207;52.494;4.654;2023-02-15T07:05:34;2.00;99.90
16200;DHT22;8207;52.494;4.654;2023-02-15T07:08:02;2.10;99.90
16200;DHT22;8207;52.494;4.654;2023-02-15T07:10:29;2.10;99.90
16200;DHT22;8207;52.494;4.654;2023-02-15T07:12:56;2.10;99.90
16200;DHT22;8207;52.494;4.654;2023-02-15T07:15:22;2.20;99.90
16200;DHT22;8207;52.494;4.654;2023-02-15T07:17:50;2.10;99.90
16200;DHT22;8207;52.494;4.654;2023-02-15T07:20:18;2.10;99.90
16200;DHT22;8207;52.494;4.654;2023-02-15T07:22:45;2.10;99.90
16200;DHT22;8207;52.494;4.654;2023-02-15T07:25:14;2.10;99.90
16200;DHT22;8207;52.494;4.654;2023-02-15T07:27:41;2.10;99.90
16200;DHT22;8207;52.494;4.654;2023-02-15T07:30:11;2.20;99.90
16200;DHT22;8207;52.494;4.654;2023-02-15T07:32:39;2.20;99.90
16200;DHT22;8207;52.494;4.654;2023-02-15T07:35:26;2.20;99.90
16200;DHT22;8207;52.494;4.654;2023-02-15T07:37:53;2.20;99.90
16200;DHT22;8207;52.494;4.654;2023-02-15T07:40:22;2.30;99.90
16200;DHT22;8207;52.494;4.654;2023-02-15T07:42:51;2.30;99.90
16200;DHT22;8207;52.494;4.654;2023-02-15T07:45:20;2.30;99.90
16200;DHT22;8207;52.494;4.654;2023-02-15T07:47:47;2.30;99.90
16200;DHT22;8207;52.494;4.654;2023-02-15T07:50:14;2.30;99.90
16200;DHT22;8207;52.494;4.654;2023-02-15T07:52:41;2.40;99.90
16200;DHT22;8207;52.494;4.654;2023-02-15T07:55:08;2.40;99.90
16200;DHT22;8207;52.494;4.654;2023-02-15T07:57:42;2.50;99.90
16200;DHT22;8207;52.494;4.654;2023-02-15T08:00:10;2.50;99.90
16200;DHT22;8207;52.494;4.654;2023-02-15T08:02:38;2.60;99.90
16200;DHT22;8207;52.494;4.654;2023-02-15T08:05:05;2.70;99.90
16200;DHT22;8207;52.494;4.654;2023-02-15T08:07:33;2.90;99.90
16200;DHT22;8207;52.494;4.654;2023-02-15T08:09:59;2.90;99.90
16200;DHT22;8207;52.494;4.654;2023-02-15T08:12:26;3.00;99.90
16200;DHT22;8207;52.494;4.654;2023-02-15T08:14:55;3.20;99.90
16200;DHT22;8207;52.494;4.654;2023-02-15T08:17:22;3.30;99.90
16200;DHT22;8207;52.494;4.654;2023-02-15T08:19:49;3.30;99.90
16200;DHT22;8207;52.494;4.654;2023-02-15T08:22:15;3.30;99.90
16200;DHT22;8207;52.494;4.654;2023-02-15T08:24:42;3.40;99.90
16200;DHT22;8207;52.494;4.654;2023-02-15T08:27:10;3.50;99.90
16200;DHT22;8207;52.494;4.654;2023-02-15T08:29:38;3.50;99.90
16200;DHT22;8207;52.494;4.654;2023-02-15T08:32:11;3.60;99.90
16200;DHT22;8207;52.494;4.654;2023-02-15T08:34:40;3.60;99.90
16200;DHT22;8207;52.494;4.654;2023-02-15T08:37:07;3.70;99.90
16200;DHT22;8207;52.494;4.654;2023-02-15T08:39:34;3.80;99.90
16200;DHT22;8207;52.494;4.654;2023-02-15T08:42:01;3.90;99.90
16200;DHT22;8207;52.494;4.654;2023-02-15T08:44:29;4.00;99.90
16200;DHT22;8207;52.494;4.654;2023-02-15T08:46:55;4.00;99.90
16200;DHT22;8207;52.494;4.654;2023-02-15T08:49:30;4.10;99.90
16200;DHT22;8207;52.494;4.654;2023-02-15T08:51:57;4.10;99.90
16200;DHT22;8207;52.494;4.654;2023-02-15T08:54:24;4.20;99.90
16200;DHT22;8207;52.494;4.654;2023-02-15T08:56:51;4.20;99.90
16200;DHT22;8207;52.494;4.654;2023-02-15T08:59:22;4.30;99.90
16200;DHT22;8207;52.494;4.654;2023-02-15T09:01:51;4.30;99.90
16200;DHT22;8207;52.494;4.654;2023-02-15T09:04:18;4.30;99.90
16200;DHT22;8207;52.494;4.654;2023-02-15T09:06:48;4.40;99.90
16200;DHT22;8207;52.494;4.654;2023-02-15T09:09:15;4.50;99.90
16200;DHT22;8207;52.494;4.654;2023-02-15T09:11:45;4.60;99.90
16200;DHT22;8207;52.494;4.654;2023-02-15T09:14:14;4.60;99.90
16200;DHT22;8207;52.494;4.654;2023-02-15T09:16:43;4.70;99.90
16200;DHT22;8207;52.494;4.654;2023-02-15T09:19:12;4.70;99.90
16200;DHT22;8207;52.494;4.654;2023-02-15T09:21:39;4.80;99.90
16200;DHT22;8207;52.494;4.654;2023-02-15T09:24:09;4.80;99.90
16200;DHT22;8207;52.494;4.654;2023-02-15T09:26:38;4.90;99.90
16200;DHT22;8207;52.494;4.654;2023-02-15T09:29:06;4.90;99.90
16200;DHT22;8207;52.494;4.654;2023-02-15T09:31:37;5.00;99.90
16200;DHT22;8207;52.494;4.654;2023-02-15T09:34:04;5.10;99.90
16200;DHT22;8207;52.494;4.654;2023-02-15T09:36:32;5.20;99.90
16200;DHT22;8207;52.494;4.654;2023-02-15T09:39:04;5.30;99.90
16200;DHT22;8207;52.494;4.654;2023-02-15T09:45:20;5.40;99.90
16200;DHT22;8207;52.494;4.654;2023-02-15T09:48:16;5.60;99.90
16200;DHT22;8207;52.494;4.654;2023-02-15T09:50:57;5.60;99.90
16200;DHT22;8207;52.494;4.654;2023-02-15T09:53:40;5.70;99.90
16200;DHT22;8207;52.494;4.654;2023-02-15T09:56:16;5.80;99.90
16200;DHT22;8207;52.494;4.654;2023-02-15T09:58:55;5.90;99.90
16200;DHT22;8207;52.494;4.654;2023-02-15T10:01:31;6.00;99.90
16200;DHT22;8207;52.494;4.654;2023-02-15T10:04:14;6.10;99.90
16200;DHT22;8207;52.494;4.654;2023-02-15T10:06:51;6.20;99.90
16200;DHT22;8207;52.494;4.654;2023-02-15T10:09:36;6.30;99.90
16200;DHT22;8207;52.494;4.654;2023-02-15T10:12:16;6.40;99.90
16200;DHT22;8207;52.494;4.654;2023-02-15T10:15:11;6.50;99.90
16200;DHT22;8207;52.494;4.654;2023-02-15T10:17:51;6.60;99.90
16200;DHT22;8207;52.494;4.654;2023-02-15T10:20:28;6.70;99.90
16200;DHT22;8207;52.494;4.654;2023-02-15T10:23:12;6.80;99.90
16200;DHT22;8207;52.494;4.654;2023-02-15T10:25:47;6.90;99.90
16200;DHT22;8207;52.494;4.654;2023-02-15T10:28:19;7.00;99.90
16200;DHT22;8207;52.494;4.654;2023-02-15T10:30:48;7.00;99.90
16200;DHT22;8207;52.494;4.654;2023-02-15T10:33:37;7.10;99.90
16200;DHT22;8207;52.494;4.654;2023-02-15T10:36:18;7.20;99.90
16200;DHT22;8207;52.494;4.654;2023-02-15T10:38:53;7.30;99.90
16200;DHT22;8207;52.494;4.654;2023-02-15T10:41:34;7.40;99.90
16200;DHT22;8207;52.494;4.654;2023-02-15T10:44:32;7.50;99.90
16200;DHT22;8207;52.494;4.654;2023-02-15T10:47:24;7.60;99.90
16200;DHT22;8207;52.494;4.654;2023-02-15T10:50:13;7.70;99.90
16200;DHT22;8207;52.494;4.654;2023-02-15T10:52:54;7.80;99.90
16200;DHT22;8207;52.494;4.654;2023-02-15T10:55:36;7.90;99.90
16200;DHT22;8207;52.494;4.654;2023-02-15T10:58:13;8.00;99.90
16200;DHT22;8207;52.494;4.654;2023-02-15T11:00:44;8.10;99.90
16200;DHT22;8207;52.494;4.654;2023-02-15T11:03:23;8.10;99.90
16200;DHT22;8207;52.494;4.654;2023-02-15T11:06:01;8.20;99.90
16200;DHT22;8207;52.494;4.654;2023-02-15T11:08:32;8.30;99.90
16200;DHT22;8207;52.494;4.654;2023-02-15T11:11:03;8.40;99.90
16200;DHT22;8207;52.494;4.654;2023-02-15T11:13:36;8.50;99.90
16200;DHT22;8207;52.494;4.654;2023-02-15T11:16:07;8.60;99.90
16200;DHT22;8207;52.494;4.654;2023-02-15T11:18:40;8.70;99.90
16200;DHT22;8207;52.494;4.654;2023-02-15T11:21:13;8.70;99.90
16200;DHT22;8207;52.494;4.654;2023-02-15T11:23:45;8.80;99.90
16200;DHT22;8207;52.494;4.654;2023-02-15T11:26:15;8.80;99.90
16200;DHT22;8207;52.494;4.654;2023-02-15T11:28:48;8.90;99.90
16200;DHT22;8207;52.494;4.654;2023-02-15T11:31:18;9.00;99.90
16200;DHT22;8207;52.494;4.654;2023-02-15T11:33:49;9.10;99.90
16200;DHT22;8207;52.494;4.654;2023-02-15T11:36:21;9.20;99.90
16200;DHT22;8207;52.494;4.654;2023-02-15T11:38:52;9.30;99.90
16200;DHT22;8207;52.494;4.654;2023-02-15T11:41:24;9.40;99.90
16200;DHT22;8207;52.494;4.654;2023-02-15T11:43:57;9.60;99.90
16200;DHT22;8207;52.494;4.654;2023-02-15T11:46:26;9.70;99.90
16200;DHT22;8207;52.494;4.654;2023-02-15T11:48:54;9.80;99.90
16200;DHT22;8207;52.494;4.654;2023-02-15T11:51:23;9.90;99.90
16200;DHT22;8207;52.494;4.654;2023-02-15T11:53:50;10.00;99.90
16200;DHT22;8207;52.494;4.654;2023-02-15T11:56:20;10.00;99.90
16200;DHT22;8207;52.494;4.654;2023-02-15T11:58:52;10.10;99.90
16200;DHT22;8207;52.494;4.654;2023-02-15T12:01:24;10.10;99.90
16200;DHT22;8207;52.494;4.654;2023-02-15T12:03:55;10.20;99.90
16200;DHT22;8207;52.494;4.654;2023-02-15T12:06:28;10.20;99.90
16200;DHT22;8207;52.494;4.654;2023-02-15T12:09:00;10.20;99.90
16200;DHT22;8207;52.494;4.654;2023-02-15T12:11:32;10.40;99.90
16200;DHT22;8207;52.494;4.654;2023-02-15T12:14:01;10.40;99.90
16200;DHT22;8207;52.494;4.654;2023-02-15T12:16:32;10.50;99.90
16200;DHT22;8207;52.494;4.654;2023-02-15T12:19:02;10.60;99.90
16200;DHT22;8207;52.494;4.654;2023-02-15T12:21:32;10.70;99.90
16200;DHT22;8207;52.494;4.654;2023-02-15T12:24:03;10.80;99.90
16200;DHT22;8207;52.494;4.654;2023-02-15T12:26:37;10.90;99.90
16200;DHT22;8207;52.494;4.654;2023-02-15T12:29:12;11.00;99.90
16200;DHT22;8207;52.494;4.654;2023-02-15T12:31:44;11.10;99.90
16200;DHT22;8207;52.494;4.654;2023-02-15T12:34:14;11.20;99.90
16200;DHT22;8207;52.494;4.654;2023-02-15T12:36:46;11.20;99.90
16200;DHT22;8207;52.494;4.654;2023-02-15T12:39:19;11.30;99.90
16200;DHT22;8207;52.494;4.654;2023-02-15T12:41:58;11.30;99.90
16200;DHT22;8207;52.494;4.654;2023-02-15T12:44:27;11.40;99.90
16200;DHT22;8207;52.494;4.654;2023-02-15T12:46:59;11.50;99.90
16200;DHT22;8207;52.494;4.654;2023-02-15T12:49:27;11.60;99.90
16200;DHT22;8207;52.494;4.654;2023-02-15T12:51:57;11.70;99.90
16200;DHT22;8207;52.494;4.654;2023-02-15T12:54:39;11.70;99.90
16200;DHT22;8207;52.494;4.654;2023-02-15T12:57:24;11.80;99.90
16200;DHT22;8207;52.494;4.654;2023-02-15T12:59:54;11.80;99.90
16200;DHT22;8207;52.494;4.654;2023-02-15T13:02:24;11.80;99.90
16200;DHT22;8207;52.494;4.654;2023-02-15T13:04:53;11.80;99.90
16200;DHT22;8207;52.494;4.654;2023-02-15T13:07:24;11.80;99.90
16200;DHT22;8207;52.494;4.654;2023-02-15T13:09:51;11.80;99.90
16200;DHT22;8207;52.494;4.654;2023-02-15T13:12:21;11.70;99.90
16200;DHT22;8207;52.494;4.654;2023-02-15T13:14:51;11.70;99.90
16200;DHT22;8207;52.494;4.654;2023-02-15T13:17:21;11.80;99.90
16200;DHT22;8207;52.494;4.654;2023-02-15T13:19:52;11.80;99.90
16200;DHT22;8207;52.494;4.654;2023-02-15T13:22:24;11.80;99.90
16200;DHT22;8207;52.494;4.654;2023-02-15T13:24:53;11.80;99.90
16200;DHT22;8207;52.494;4.654;2023-02-15T13:27:26;11.80;99.90
16200;DHT22;8207;52.494;4.654;2023-02-15T13:29:57;11.80;99.90
16200;DHT22;8207;52.494;4.654;2023-02-15T13:32:28;11.90;99.90
16200;DHT22;8207;52.494;4.654;2023-02-15T13:34:57;11.90;99.90
16200;DHT22;8207;52.494;4.654;2023-02-15T13:37:40;11.90;99.90
16200;DHT22;8207;52.494;4.654;2023-02-15T13:40:15;11.90;99.90
16200;DHT22;8207;52.494;4.654;2023-02-15T13:42:47;12.00;99.90
16200;DHT22;8207;52.494;4.654;2023-02-15T13:45:36;12.00;99.90
16200;DHT22;8207;52.494;4.654;2023-02-15T13:48:14;12.00;99.90
16200;DHT22;8207;52.494;4.654;2023-02-15T13:51:01;12.00;99.90
16200;DHT22;8207;52.494;4.654;2023-02-15T13:53:46;12.10;99.90
16200;DHT22;8207;52.494;4.654;2023-02-15T13:56:19;12.10;99.90
16200;DHT22;8207;52.494;4.654;2023-02-15T13:59:09;12.10;99.90
16200;DHT22;8207;52.494;4.654;2023-02-15T14:01:44;12.10;99.90
16200;DHT22;8207;52.494;4.654;2023-02-15T14:04:36;12.10;92.20
16200;DHT22;8207;52.494;4.654;2023-02-15T14:07:26;12.10;99.90
16200;DHT22;8207;52.494;4.654;2023-02-15T14:10:12;12.10;99.90
16200;DHT22;8207;52.494;4.654;2023-02-15T14:12:53;12.10;99.90
16200;DHT22;8207;52.494;4.654;2023-02-15T14:15:34;12.00;99.90
16200;DHT22;8207;52.494;4.654;2023-02-15T14:18:12;12.00;99.90
16200;DHT22;8207;52.494;4.654;2023-02-15T14:20:55;11.90;99.90
16200;DHT22;8207;52.494;4.654;2023-02-15T14:23:32;11.90;99.90
16200;DHT22;8207;52.494;4.654;2023-02-15T14:26:10;11.90;99.90
16200;DHT22;8207;52.494;4.654;2023-02-15T14:28:45;11.90;99.90
16200;DHT22;8207;52.494;4.654;2023-02-15T14:31:15;11.90;99.90
16200;DHT22;8207;52.494;4.654;2023-02-15T14:33:52;11.90;99.90
16200;DHT22;8207;52.494;4.654;2023-02-15T14:36:20;11.80;99.90
16200;DHT22;8207;52.494;4.654;2023-02-15T14:38:54;11.80;99.90
16200;DHT22;8207;52.494;4.654;2023-02-15T14:41:31;11.80;99.90
16200;DHT22;8207;52.494;4.654;2023-02-15T14:44:05;11.80;99.90
16200;DHT22;8207;52.494;4.654;2023-02-15T14:46:40;11.70;99.80
16200;DHT22;8207;52.494;4.654;2023-02-15T14:49:11;11.80;99.90
16200;DHT22;8207;52.494;4.654;2023-02-15T14:51:58;11.80;87.10
16200;DHT22;8207;52.494;4.654;2023-02-15T14:54:54;11.70;85.10
16200;DHT22;8207;52.494;4.654;2023-02-15T14:57:34;11.80;33.30
16200;DHT22;8207;52.494;4.654;2023-02-15T15:00:28;11.70;26.70
16200;DHT22;8207;52.494;4.654;2023-02-15T15:02:56;11.80;44.30
16200;DHT22;8207;52.494;4.654;2023-02-15T15:05:32;11.70;43.50
16200;DHT22;8207;52.494;4.654;2023-02-15T15:08:01;11.70;51.90
16200;DHT22;8207;52.494;4.654;2023-02-15T15:10:39;11.60;69.10
16200;DHT22;8207;52.494;4.654;2023-02-15T15:13:39;11.60;71.10
16200;DHT22;8207;52.494;4.654;2023-02-15T15:19:58;11.30;99.40
16200;DHT22;8207;52.494;4.654;2023-02-15T15:22:26;11.30;99.90
16200;DHT22;8207;52.494;4.654;2023-02-15T15:24:54;11.10;99.90
16200;DHT22;8207;52.494;4.654;2023-02-15T15:27:39;11.10;99.90
16200;DHT22;8207;52.494;4.654;2023-02-15T15:30:50;11.10;99.90
16200;DHT22;8207;52.494;4.654;2023-02-15T15:37:00;10.90;99.90
16200;DHT22;8207;52.494;4.654;2023-02-15T15:40:09;10.80;99.90
16200;DHT22;8207;52.494;4.654;2023-02-15T15:42:49;10.70;99.90
16200;DHT22;8207;52.494;4.654;2023-02-15T15:45:37;10.70;99.90
16200;DHT22;8207;52.494;4.654;2023-02-15T15:48:29;10.60;99.90
16200;DHT22;8207;52.494;4.654;2023-02-15T15:50:59;10.60;99.90
16200;DHT22;8207;52.494;4.654;2023-02-15T15:53:29;10.60;99.90
16200;DHT22;8207;52.494;4.654;2023-02-15T15:56:00;10.50;99.90
16200;DHT22;8207;52.494;4.654;2023-02-15T15:58:30;10.50;99.90
16200;DHT22;8207;52.494;4.654;2023-02-15T16:01:00;10.40;99.90
16200;DHT22;8207;52.494;4.654;2023-02-15T16:03:31;10.40;99.90
16200;DHT22;8207;52.494;4.654;2023-02-15T16:05:58;10.40;99.90
16200;DHT22;8207;52.494;4.654;2023-02-15T16:08:28;10.40;99.90
16200;DHT22;8207;52.494;4.654;2023-02-15T16:10:55;10.40;99.90
16200;DHT22;8207;52.494;4.654;2023-02-15T16:13:23;10.40;99.90
16200;DHT22;8207;52.494;4.654;2023-02-15T16:15:53;10.40;99.90
16200;DHT22;8207;52.494;4.654;2023-02-15T16:18:23;10.30;99.90
16200;DHT22;8207;52.494;4.654;2023-02-15T16:20:53;10.30;99.90
16200;DHT22;8207;52.494;4.654;2023-02-15T16:23:50;10.30;98.50
16200;DHT22;8207;52.494;4.654;2023-02-15T16:26:47;10.20;99.90
16200;DHT22;8207;52.494;4.654;2023-02-15T16:29:23;10.20;99.90
16200;DHT22;8207;52.494;4.654;2023-02-15T16:31:58;10.20;99.90
16200;DHT22;8207;52.494;4.654;2023-02-15T16:34:25;10.10;99.90
16200;DHT22;8207;52.494;4.654;2023-02-15T16:37:16;10.10;99.90
16200;DHT22;8207;52.494;4.654;2023-02-15T16:39:44;10.10;99.90
16200;DHT22;8207;52.494;4.654;2023-02-15T16:42:15;10.00;99.90
16200;DHT22;8207;52.494;4.654;2023-02-15T16:44:42;9.90;99.90
16200;DHT22;8207;52.494;4.654;2023-02-15T16:47:16;9.90;99.90
16200;DHT22;8207;52.494;4.654;2023-02-15T16:49:46;9.90;99.90